createdAt,value
2018-06-18T00:05:39.973Z,5.62
2018-06-18T00:11:35.013Z,6.1
2018-06-18T00:17:29.952Z,4.69
2018-06-18T00:23:25.020Z,7.79
2018-06-18T00:29:19.978Z,7.27
2018-06-18T00:35:14.963Z,7.43
2018-06-18T00:41:09.949Z,4.1
2018-06-18T00:47:04.976Z,4.17
2018-06-18T00:53:00.013Z,4.61
2018-06-18T00:58:54.979Z,4.49
2018-06-18T01:04:49.966Z,4.93
2018-06-18T01:10:45.041Z,6.26
2018-06-18T01:16:39.990Z,7.64
2018-06-18T01:22:34.971Z,6.62
2018-06-18T01:28:29.980Z,5.47
2018-06-18T01:34:24.995Z,6.2
2018-06-18T01:40:20.043Z,6.2
2018-06-18T01:46:15.004Z,6.93
2018-06-18T01:52:10.041Z,5.84
2018-06-18T01:58:04.974Z,8.01
2018-06-18T02:04:00.047Z,7.05
2018-06-18T02:09:54.984Z,6.41
2018-06-18T02:15:49.983Z,4.92
2018-06-18T02:21:45.010Z,7.37
2018-06-18T02:27:39.993Z,6.19
2018-06-18T02:33:34.997Z,7.97
2018-06-18T02:39:30.002Z,6.53
2018-06-18T02:45:25.019Z,6.6
2018-06-18T02:51:20.004Z,8.06
2018-06-18T02:57:14.981Z,8.18
2018-06-18T03:03:10.047Z,7.23
2018-06-18T03:09:05.073Z,8.19
2018-06-18T03:15:00.003Z,6.64
2018-06-18T03:20:54.961Z,5.57
2018-06-18T03:26:49.990Z,7.01
2018-06-18T03:32:44.962Z,5.72
2018-06-18T03:38:40.006Z,6.65
2018-06-18T03:44:35.004Z,11.33
2018-06-18T03:50:30.029Z,6.52
2018-06-18T03:56:24.965Z,8.96
2018-06-18T04:02:20.000Z,8.11
2018-06-18T04:08:15.014Z,7.5
2018-06-18T04:14:09.987Z,7.21
2018-06-18T04:20:04.984Z,6.92
2018-06-18T04:26:00.027Z,6.03
2018-06-18T04:31:55.003Z,5.92
2018-06-18T04:37:50.105Z,7.9
2018-06-18T04:43:45.007Z,9.07
2018-06-18T04:49:40.022Z,8.22
2018-06-18T04:55:35.005Z,6.47
2018-06-18T05:01:30.039Z,15.97
2018-06-18T05:07:24.996Z,8.39
2018-06-18T05:13:20.007Z,7.67
2018-06-18T05:19:14.980Z,15.42
2018-06-18T05:25:10.018Z,16.33
2018-06-18T05:31:05.001Z,8.39
2018-06-18T05:37:00.013Z,9.31
2018-06-18T05:42:55.005Z,9.73
2018-06-18T05:48:49.995Z,9.04
2018-06-18T05:54:45.065Z,7.75
2018-06-18T06:00:39.986Z,8.99
2018-06-18T06:06:35.038Z,10.03
2018-06-18T06:12:30.062Z,14.29
2018-06-18T06:18:25.043Z,10.76
2018-06-18T06:24:20.029Z,10.69
2018-06-18T06:30:15.032Z,11.95
2018-06-18T06:36:09.987Z,11.17
2018-06-18T06:42:04.990Z,10.81
2018-06-18T06:48:00.012Z,12.02
2018-06-18T06:53:55.083Z,18.85
2018-06-18T06:59:50.014Z,15.38
2018-06-18T07:05:45.046Z,13.41
2018-06-18T07:11:40.041Z,13.84
2018-06-18T07:17:35.043Z,14.26
2018-06-18T07:23:30.050Z,12.7
2018-06-18T07:29:25.029Z,8.04
2018-06-18T07:35:20.055Z,5.38
2018-06-18T07:41:15.031Z,4.95
2018-06-18T07:47:10.120Z,5.3
2018-06-18T07:53:05.053Z,7.16
2018-06-18T07:59:00.050Z,4.71
2018-06-18T08:04:55.060Z,4.91
2018-06-18T08:10:50.063Z,4.9
2018-06-18T08:16:45.075Z,5.47
2018-06-18T08:22:40.042Z,6.1
2018-06-18T08:28:35.075Z,5.92
2018-06-18T08:34:30.070Z,6.23
2018-06-18T08:40:25.071Z,6.39
2018-06-18T08:46:20.041Z,4.58
2018-06-18T08:52:15.060Z,6.01
2018-06-18T08:58:10.075Z,7.79
2018-06-18T09:04:05.118Z,8.25
2018-06-18T09:10:00.096Z,8.99
2018-06-18T09:15:55.060Z,5.07
2018-06-18T09:21:50.049Z,7.19
2018-06-18T09:27:45.052Z,6.32
2018-06-18T09:33:40.083Z,5.59
2018-06-18T09:39:35.102Z,6.14
2018-06-18T09:45:30.107Z,6.86
2018-06-18T09:51:25.149Z,7.45
2018-06-18T09:57:20.067Z,6.64
2018-06-18T10:21:00.085Z,6.4
2018-06-18T10:21:00.286Z,6.89
2018-06-18T10:21:00.292Z,6.89
2018-06-18T10:21:00.328Z,6.89
2018-06-18T10:26:55.108Z,10.58
2018-06-18T10:32:50.066Z,6.09
2018-06-18T10:38:45.116Z,8.21
2018-06-18T10:44:40.169Z,6.93
2018-06-18T10:50:35.107Z,6.86
2018-06-18T10:56:30.143Z,4.92
2018-06-18T11:02:25.126Z,6.69
2018-06-18T11:08:20.135Z,6.32
2018-06-18T11:14:15.130Z,5.17
2018-06-18T11:20:10.093Z,6.94
2018-06-18T11:26:05.125Z,6.76
2018-06-18T11:32:00.121Z,6.32
2018-06-18T11:37:55.125Z,6.34
2018-06-18T11:43:50.133Z,9.74
2018-06-18T11:49:45.147Z,7.23
2018-06-18T11:55:40.111Z,6.23
2018-06-18T12:01:35.158Z,5.31
2018-06-18T12:07:30.136Z,5.97
2018-06-18T12:13:25.121Z,12.55
2018-06-18T12:19:20.182Z,6.3
2018-06-18T12:25:15.252Z,5.43
2018-06-18T12:31:10.126Z,6.2
2018-06-18T12:37:05.215Z,5.56
2018-06-18T12:43:00.210Z,5.67
2018-06-18T12:48:55.188Z,6.17
2018-06-18T12:54:50.180Z,5.7
2018-06-18T13:18:30.166Z,5.81
2018-06-18T13:18:30.200Z,6.64
2018-06-18T13:18:30.208Z,6.64
2018-06-18T13:18:30.253Z,6.64
2018-06-18T13:24:25.172Z,5.57
2018-06-18T13:30:20.201Z,7.13
2018-06-18T13:36:15.192Z,5.76
2018-06-18T13:42:10.226Z,5.38
2018-06-18T13:48:05.231Z,6.47
2018-06-18T13:54:00.179Z,5.98
2018-06-18T13:59:55.194Z,5.08
2018-06-18T14:05:50.174Z,7.16
2018-06-18T14:11:45.203Z,7.87
2018-06-18T14:17:40.240Z,6.48
2018-06-18T14:23:35.200Z,5.58
2018-06-18T14:29:30.252Z,7.85
2018-06-18T14:35:25.204Z,6.67
2018-06-18T14:41:20.174Z,5.46
2018-06-18T14:47:15.205Z,3.98
2018-06-18T14:53:10.252Z,4.68
2018-06-18T14:59:05.279Z,5.07
2018-06-18T15:05:00.340Z,4.99
2018-06-18T15:10:55.245Z,5.91
2018-06-18T15:16:50.216Z,5.68
2018-06-18T15:22:45.286Z,4.98
2018-06-18T15:28:40.253Z,5.42
2018-06-18T15:34:35.292Z,5.87
2018-06-18T15:40:30.263Z,5.21
2018-06-18T15:46:25.232Z,4.59
2018-06-18T15:52:20.204Z,5.32
2018-06-18T15:58:15.287Z,4.2
2018-06-18T16:21:55.253Z,6.04
2018-06-18T16:21:55.262Z,6.24
2018-06-18T16:21:55.325Z,6.04
2018-06-18T16:21:55.374Z,6.04
2018-06-18T16:27:50.302Z,3.71
2018-06-18T16:33:45.262Z,5.71
2018-06-18T16:39:40.270Z,4.95
2018-06-18T16:45:35.256Z,5.87
2018-06-18T16:51:30.240Z,5.33
2018-06-18T16:57:25.285Z,5.83
2018-06-18T17:03:20.256Z,6.91
2018-06-18T17:09:15.269Z,5.68
2018-06-18T17:15:10.260Z,5.16
2018-06-18T17:21:05.277Z,6.54
2018-06-18T17:27:00.287Z,5.87
2018-06-18T17:32:55.266Z,4.48
2018-06-18T17:38:50.307Z,5.03
2018-06-18T17:44:45.294Z,4.37
2018-06-18T17:50:40.281Z,5.55
2018-06-18T17:56:35.313Z,5.86
2018-06-18T18:02:30.286Z,4.83
2018-06-18T18:08:25.339Z,6.5
2018-06-18T18:14:20.324Z,11.13
2018-06-18T18:20:15.328Z,11.14
2018-06-18T18:26:10.278Z,8.2
2018-06-18T18:32:05.359Z,8.56
2018-06-18T18:38:00.288Z,5.92
2018-06-18T18:43:55.310Z,8.81
2018-06-18T18:49:50.323Z,8.14
2018-06-18T18:55:45.313Z,4.97
2018-06-18T19:19:25.333Z,5.89
2018-06-18T19:19:25.422Z,7.79
2018-06-18T19:19:25.435Z,7.79
2018-06-18T19:19:25.490Z,7.79
2018-06-18T19:25:20.308Z,4.78
2018-06-18T19:31:15.353Z,5.71
2018-06-18T19:37:10.380Z,8.26
2018-06-18T19:43:05.354Z,6.46
2018-06-18T19:49:00.334Z,6.49
2018-06-18T19:54:55.316Z,6.81
2018-06-18T20:00:50.307Z,6.48
2018-06-18T20:06:45.346Z,7.47
2018-06-18T20:12:40.349Z,7.43
2018-06-18T20:18:35.355Z,6.58
2018-06-18T20:24:30.313Z,7.16
2018-06-18T20:30:25.386Z,6.86
2018-06-18T20:36:20.399Z,11.08
2018-06-18T20:42:15.333Z,5.95
2018-06-18T20:48:10.373Z,5.59
2018-06-18T20:54:05.341Z,5.34
2018-06-18T21:00:00.391Z,7.32
2018-06-18T21:05:55.336Z,6.84
2018-06-18T21:11:50.359Z,6.9
2018-06-18T21:17:45.365Z,6.3
2018-06-18T21:23:40.337Z,5.97
2018-06-18T21:29:35.400Z,8.82
2018-06-18T21:35:30.432Z,6.13
2018-06-18T21:41:25.412Z,6.99
2018-06-18T21:47:20.354Z,7.07
2018-06-18T21:53:15.341Z,6.2
2018-06-18T21:59:10.424Z,5.07
2018-06-18T22:22:50.385Z,6.16
2018-06-18T22:22:50.504Z,6.74
2018-06-18T22:22:50.506Z,6.74
2018-06-18T22:22:50.568Z,6.74
2018-06-18T22:28:45.377Z,7.56
2018-06-18T22:34:40.391Z,5.79
2018-06-18T22:40:35.398Z,7.98
2018-06-18T22:46:30.433Z,5.99
2018-06-18T22:52:25.415Z,6.8
2018-06-18T22:58:20.409Z,5.83
2018-06-18T23:04:15.462Z,6.03
2018-06-18T23:10:10.425Z,7.49
2018-06-18T23:16:05.511Z,6.36
2018-06-18T23:22:00.381Z,6.32
2018-06-18T23:27:55.407Z,8.21
2018-06-18T23:33:50.426Z,7.61
2018-06-18T23:39:45.457Z,6.93
2018-06-18T23:45:40.474Z,7.77
2018-06-18T23:51:35.389Z,7.98
2018-06-18T23:57:30.486Z,7.34
